sensor_id;sensor_type;location;lat;lon;timestamp;pressure;altitude;pressure_sealevel;temperature;humidity
40794;BME280;26502;51.886;15.604;2022-12-07T00:02:04;100325.09;;;1.13;87.76
40794;BME280;26502;51.886;15.604;2022-12-07T00:07:12;100320.36;;;1.10;87.59
40794;BME280;26502;51.886;15.604;2022-12-07T00:12:20;100316.34;;;1.03;87.51
40794;BME280;26502;51.886;15.604;2022-12-07T00:17:28;100318.09;;;1.00;87.51
40794;BME280;26502;51.886;15.604;2022-12-07T00:22:35;100315.29;;;0.92;87.48
40794;BME280;26502;51.886;15.604;2022-12-07T00:27:43;100313.36;;;0.92;87.46
40794;BME280;26502;51.886;15.604;2022-12-07T00:32:50;100309.85;;;0.90;87.54
40794;BME280;26502;51.886;15.604;2022-12-07T00:37:59;100305.13;;;0.81;87.55
40794;BME280;26502;51.886;15.604;2022-12-07T00:43:06;100300.23;;;0.74;87.36
40794;BME280;26502;51.886;15.604;2022-12-07T00:48:14;100301.60;;;0.66;87.46
40794;BME280;26502;51.886;15.604;2022-12-07T00:53:22;100301.42;;;0.63;87.63
40794;BME280;26502;51.886;15.604;2022-12-07T00:58:30;100300.02;;;0.59;87.49
40794;BME280;26502;51.886;15.604;2022-12-07T01:03:37;100304.75;;;0.60;87.52
40794;BME280;26502;51.886;15.604;2022-12-07T01:08:45;100304.38;;;0.56;87.72
40794;BME280;26502;51.886;15.604;2022-12-07T01:13:53;100301.58;;;0.54;87.64
40794;BME280;26502;51.886;15.604;2022-12-07T01:19:02;100302.29;;;0.57;87.63
40794;BME280;26502;51.886;15.604;2022-12-07T01:24:12;100306.30;;;0.54;87.78
40794;BME280;26502;51.886;15.604;2022-12-07T01:29:19;100297.40;;;0.58;87.83
40794;BME280;26502;51.886;15.604;2022-12-07T01:34:26;100293.56;;;0.60;87.87
40794;BME280;26502;51.886;15.604;2022-12-07T01:39:36;100293.39;;;0.62;87.85
40794;BME280;26502;51.886;15.604;2022-12-07T01:50:23;100285.35;;;0.60;87.97
40794;BME280;26502;51.886;15.604;2022-12-07T01:55:33;100279.92;;;0.61;88.16
40794;BME280;26502;51.886;15.604;2022-12-07T02:00:42;100271.89;;;0.63;88.27
40794;BME280;26502;51.886;15.604;2022-12-07T02:05:50;100260.55;;;0.67;88.23
40794;BME280;26502;51.886;15.604;2022-12-07T02:10:58;100258.63;;;0.75;88.32
40794;BME280;26502;51.886;15.604;2022-12-07T02:16:13;100252.33;;;0.81;88.35
40794;BME280;26502;51.886;15.604;2022-12-07T02:21:33;100248.15;;;0.84;88.32
40794;BME280;26502;51.886;15.604;2022-12-07T02:27:10;100249.38;;;0.91;88.11
40794;BME280;26502;51.886;15.604;2022-12-07T02:32:24;100247.27;;;0.93;88.19
40794;BME280;26502;51.886;15.604;2022-12-07T02:37:39;100247.80;;;0.96;88.23
40794;BME280;26502;51.886;15.604;2022-12-07T02:42:52;100240.27;;;0.92;88.22
40794;BME280;26502;51.886;15.604;2022-12-07T02:48:02;100227.16;;;0.94;88.42
40794;BME280;26502;51.886;15.604;2022-12-07T02:53:30;100221.73;;;0.97;88.59
40794;BME280;26502;51.886;15.604;2022-12-07T02:58:46;100213.70;;;1.01;88.66
40794;BME280;26502;51.886;15.604;2022-12-07T03:04:05;100216.32;;;1.06;88.64
40794;BME280;26502;51.886;15.604;2022-12-07T03:09:21;100213.34;;;1.09;88.79
40794;BME280;26502;51.886;15.604;2022-12-07T03:14:36;100207.90;;;1.14;88.86
40794;BME280;26502;51.886;15.604;2022-12-07T03:19:47;100207.37;;;1.20;88.94
40794;BME280;26502;51.886;15.604;2022-12-07T03:24:59;100198.80;;;1.28;88.97
40794;BME280;26502;51.886;15.604;2022-12-07T03:30:11;100201.94;;;1.32;89.08
40794;BME280;26502;51.886;15.604;2022-12-07T03:35:21;100203.67;;;1.36;89.15
40794;BME280;26502;51.886;15.604;2022-12-07T03:40:37;100201.05;;;1.38;89.50
40794;BME280;26502;51.886;15.604;2022-12-07T03:45:55;100194.90;;;1.44;89.14
40794;BME280;26502;51.886;15.604;2022-12-07T03:51:11;100195.06;;;1.49;89.31
40794;BME280;26502;51.886;15.604;2022-12-07T03:56:22;100191.55;;;1.53;89.33
40794;BME280;26502;51.886;15.604;2022-12-07T04:01:29;100187.00;;;1.52;89.13
40794;BME280;26502;51.886;15.604;2022-12-07T04:06:36;100184.55;;;1.50;89.02
40794;BME280;26502;51.886;15.604;2022-12-07T04:11:44;100186.84;;;1.46;89.22
40794;BME280;26502;51.886;15.604;2022-12-07T04:16:53;100183.19;;;1.36;89.21
40794;BME280;26502;51.886;15.604;2022-12-07T04:22:05;100177.27;;;1.29;89.21
40794;BME280;26502;51.886;15.604;2022-12-07T04:27:12;100173.44;;;1.22;89.28
40794;BME280;26502;51.886;15.604;2022-12-07T04:32:21;100167.85;;;1.15;88.86
40794;BME280;26502;51.886;15.604;2022-12-07T04:37:28;100172.24;;;1.08;88.95
40794;BME280;26502;51.886;15.604;2022-12-07T04:42:36;100166.84;;;1.00;88.74
40794;BME280;26502;51.886;15.604;2022-12-07T04:47:43;100162.11;;;0.95;88.61
40794;BME280;26502;51.886;15.604;2022-12-07T04:52:50;100161.44;;;0.86;88.70
40794;BME280;26502;51.886;15.604;2022-12-07T04:57:57;100168.78;;;0.78;88.48
40794;BME280;26502;51.886;15.604;2022-12-07T05:03:04;100169.30;;;0.72;88.49
40794;BME280;26502;51.886;15.604;2022-12-07T05:08:13;100168.44;;;0.64;88.36
40794;BME280;26502;51.886;15.604;2022-12-07T05:13:24;100163.89;;;0.59;88.14
40794;BME280;26502;51.886;15.604;2022-12-07T05:18:31;100163.20;;;0.57;88.06
40794;BME280;26502;51.886;15.604;2022-12-07T05:23:38;100157.43;;;0.50;87.92
40794;BME280;26502;51.886;15.604;2022-12-07T05:28:49;100150.97;;;0.47;88.06
40794;BME280;26502;51.886;15.604;2022-12-07T05:33:56;100152.02;;;0.45;87.76
40794;BME280;26502;51.886;15.604;2022-12-07T05:39:04;100155.33;;;0.41;87.86
40794;BME280;26502;51.886;15.604;2022-12-07T05:44:11;100155.67;;;0.36;87.89
40794;BME280;26502;51.886;15.604;2022-12-07T05:49:19;100153.05;;;0.36;87.89
40794;BME280;26502;51.886;15.604;2022-12-07T05:54:27;100155.50;;;0.35;87.92
40794;BME280;26502;51.886;15.604;2022-12-07T05:59:34;100159.16;;;0.29;87.86
40794;BME280;26502;51.886;15.604;2022-12-07T06:04:43;100157.75;;;0.29;87.72
40794;BME280;26502;51.886;15.604;2022-12-07T06:09:51;100153.92;;;0.30;87.72
40794;BME280;26502;51.886;15.604;2022-12-07T06:14:59;100145.72;;;0.27;87.58
40794;BME280;26502;51.886;15.604;2022-12-07T06:20:07;100146.06;;;0.23;87.68
40794;BME280;26502;51.886;15.604;2022-12-07T06:25:15;100145.02;;;0.22;87.74
40794;BME280;26502;51.886;15.604;2022-12-07T06:30:22;100147.29;;;0.23;87.78
40794;BME280;26502;51.886;15.604;2022-12-07T06:35:29;100134.88;;;0.23;87.73
40794;BME280;26502;51.886;15.604;2022-12-07T06:40:39;100127.71;;;0.24;87.49
40794;BME280;26502;51.886;15.604;2022-12-07T06:45:46;100121.96;;;0.22;87.66
40794;BME280;26502;51.886;15.604;2022-12-07T06:50:53;100119.68;;;0.24;87.43
40794;BME280;26502;51.886;15.604;2022-12-07T06:56:02;100120.73;;;0.22;87.47
40794;BME280;26502;51.886;15.604;2022-12-07T07:01:13;100120.20;;;0.19;87.51
40794;BME280;26502;51.886;15.604;2022-12-07T07:06:21;100117.23;;;0.22;87.55
40794;BME280;26502;51.886;15.604;2022-12-07T07:11:29;100110.25;;;0.26;87.44
40794;BME280;26502;51.886;15.604;2022-12-07T07:16:37;100109.73;;;0.29;87.36
40794;BME280;26502;51.886;15.604;2022-12-07T07:21:44;100104.84;;;0.33;87.48
40794;BME280;26502;51.886;15.604;2022-12-07T07:26:51;100098.73;;;0.38;87.35
40794;BME280;26502;51.886;15.604;2022-12-07T07:31:59;100091.04;;;0.43;87.66
40794;BME280;26502;51.886;15.604;2022-12-07T07:37:07;100081.42;;;0.49;87.49
40794;BME280;26502;51.886;15.604;2022-12-07T07:42:14;100078.80;;;0.54;87.37
40794;BME280;26502;51.886;15.604;2022-12-07T07:47:22;100078.79;;;0.60;87.59
40794;BME280;26502;51.886;15.604;2022-12-07T07:52:29;100072.67;;;0.68;87.59
40794;BME280;26502;51.886;15.604;2022-12-07T07:57:38;100076.33;;;0.72;87.80
40794;BME280;26502;51.886;15.604;2022-12-07T08:02:46;100077.36;;;0.75;87.65
40794;BME280;26502;51.886;15.604;2022-12-07T08:07:54;100074.92;;;0.76;87.62
40794;BME280;26502;51.886;15.604;2022-12-07T08:13:01;100073.70;;;0.73;87.59
40794;BME280;26502;51.886;15.604;2022-12-07T08:18:19;100070.92;;;0.67;87.40
40794;BME280;26502;51.886;15.604;2022-12-07T08:23:26;100068.31;;;0.58;87.50
40794;BME280;26502;51.886;15.604;2022-12-07T08:28:34;100066.58;;;0.59;87.53
40794;BME280;26502;51.886;15.604;2022-12-07T08:33:43;100059.23;;;0.56;87.55
40794;BME280;26502;51.886;15.604;2022-12-07T08:38:53;100053.98;;;0.59;87.69
40794;BME280;26502;51.886;15.604;2022-12-07T08:44:00;100054.66;;;0.66;87.80
40794;BME280;26502;51.886;15.604;2022-12-07T08:49:11;100055.89;;;0.68;87.89
40794;BME280;26502;51.886;15.604;2022-12-07T08:54:20;100049.92;;;0.74;88.18
40794;BME280;26502;51.886;15.604;2022-12-07T08:59:30;100043.63;;;0.80;88.12
40794;BME280;26502;51.886;15.604;2022-12-07T09:04:37;100044.30;;;0.89;88.12
40794;BME280;26502;51.886;15.604;2022-12-07T09:09:45;100043.23;;;0.92;88.24
40794;BME280;26502;51.886;15.604;2022-12-07T09:14:52;100035.52;;;0.97;88.43
40794;BME280;26502;51.886;15.604;2022-12-07T09:19:59;100038.64;;;1.04;88.51
40794;BME280;26502;51.886;15.604;2022-12-07T09:25:08;100038.29;;;1.07;88.72
40794;BME280;26502;51.886;15.604;2022-12-07T09:30:16;100040.36;;;1.10;88.69
40794;BME280;26502;51.886;15.604;2022-12-07T09:35:24;100033.87;;;1.17;88.56
40794;BME280;26502;51.886;15.604;2022-12-07T09:40:32;100032.80;;;1.19;88.68
40794;BME280;26502;51.886;15.604;2022-12-07T09:45:40;100022.83;;;1.23;88.72
40794;BME280;26502;51.886;15.604;2022-12-07T09:50:51;100018.95;;;1.28;88.55
40794;BME280;26502;51.886;15.604;2022-12-07T09:56:02;100009.85;;;1.31;88.75
40794;BME280;26502;51.886;15.604;2022-12-07T10:01:14;100010.16;;;1.35;88.47
40794;BME280;26502;51.886;15.604;2022-12-07T10:06:25;100015.03;;;1.42;88.63
40794;BME280;26502;51.886;15.604;2022-12-07T10:11:33;100008.52;;;1.47;88.77
40794;BME280;26502;51.886;15.604;2022-12-07T10:16:41;100004.81;;;1.51;88.87
40794;BME280;26502;51.886;15.604;2022-12-07T10:22:04;100001.83;;;1.55;88.76
40794;BME280;26502;51.886;15.604;2022-12-07T10:27:21;100005.98;;;1.63;89.03
40794;BME280;26502;51.886;15.604;2022-12-07T10:32:36;99997.90;;;1.67;88.90
40794;BME280;26502;51.886;15.604;2022-12-07T10:37:43;99985.92;;;1.75;88.95
40794;BME280;26502;51.886;15.604;2022-12-07T10:43:02;99993.77;;;1.80;88.82
40794;BME280;26502;51.886;15.604;2022-12-07T10:48:15;99988.83;;;1.86;89.18
40794;BME280;26502;51.886;15.604;2022-12-07T10:53:39;99989.31;;;1.91;88.71
40794;BME280;26502;51.886;15.604;2022-12-07T10:59:02;99989.30;;;1.91;88.70
40794;BME280;26502;51.886;15.604;2022-12-07T11:04:27;99986.32;;;1.92;88.64
40794;BME280;26502;51.886;15.604;2022-12-07T11:09:51;99980.67;;;1.97;88.90
40794;BME280;26502;51.886;15.604;2022-12-07T11:15:04;99976.64;;;1.99;88.90
40794;BME280;26502;51.886;15.604;2022-12-07T11:20:34;99968.33;;;2.08;88.66
40794;BME280;26502;51.886;15.604;2022-12-07T11:25:53;99967.19;;;2.17;88.72
40794;BME280;26502;51.886;15.604;2022-12-07T11:31:11;99963.20;;;2.30;88.62
40794;BME280;26502;51.886;15.604;2022-12-07T11:36:33;99954.92;;;2.51;88.47
40794;BME280;26502;51.886;15.604;2022-12-07T11:41:44;99941.87;;;2.59;88.36
40794;BME280;26502;51.886;15.604;2022-12-07T11:46:58;99938.92;;;2.70;87.59
40794;BME280;26502;51.886;15.604;2022-12-07T11:52:16;99936.42;;;2.75;86.96
40794;BME280;26502;51.886;15.604;2022-12-07T11:57:28;99928.39;;;3.23;86.45
40794;BME280;26502;51.886;15.604;2022-12-07T12:02:43;99924.67;;;3.37;85.47
40794;BME280;26502;51.886;15.604;2022-12-07T12:07:57;99924.59;;;3.31;85.08
40794;BME280;26502;51.886;15.604;2022-12-07T12:19:00;99955.39;;;3.25;85.11
40794;BME280;26502;51.886;15.604;2022-12-07T12:24:15;99962.36;;;2.75;84.20
40794;BME280;26502;51.886;15.604;2022-12-07T12:29:28;99962.17;;;2.28;84.43
40794;BME280;26502;51.886;15.604;2022-12-07T12:34:57;99966.23;;;2.26;85.00
40794;BME280;26502;51.886;15.604;2022-12-07T12:51:48;99948.50;;;2.11;85.04
40794;BME280;26502;51.886;15.604;2022-12-07T12:57:01;99953.14;;;2.02;84.75
40794;BME280;26502;51.886;15.604;2022-12-07T13:02:25;99959.17;;;1.93;84.73
40794;BME280;26502;51.886;15.604;2022-12-07T13:07:54;99964.11;;;1.87;84.65
40794;BME280;26502;51.886;15.604;2022-12-07T13:13:25;99969.23;;;1.84;84.98
40794;BME280;26502;51.886;15.604;2022-12-07T13:18:38;99978.53;;;1.82;84.65
40794;BME280;26502;51.886;15.604;2022-12-07T13:23:58;99985.03;;;1.78;84.30
40794;BME280;26502;51.886;15.604;2022-12-07T13:29:14;99989.59;;;1.79;84.65
40794;BME280;26502;51.886;15.604;2022-12-07T13:34:33;99991.48;;;1.82;84.59
40794;BME280;26502;51.886;15.604;2022-12-07T13:39:48;99996.79;;;1.76;84.32
40794;BME280;26502;51.886;15.604;2022-12-07T13:44:58;99994.00;;;1.74;84.09
40794;BME280;26502;51.886;15.604;2022-12-07T13:50:24;99995.05;;;1.74;83.97
40794;BME280;26502;51.886;15.604;2022-12-07T13:55:32;100001.01;;;1.74;83.80
40794;BME280;26502;51.886;15.604;2022-12-07T14:00:42;100008.00;;;1.74;83.70
40794;BME280;26502;51.886;15.604;2022-12-07T14:05:48;100006.63;;;1.71;83.28
40794;BME280;26502;51.886;15.604;2022-12-07T14:11:12;100013.14;;;1.65;82.99
40794;BME280;26502;51.886;15.604;2022-12-07T14:16:25;100007.74;;;1.60;83.29
40794;BME280;26502;51.886;15.604;2022-12-07T14:21:34;100003.00;;;1.63;82.93
40794;BME280;26502;51.886;15.604;2022-12-07T14:26:41;99995.34;;;1.57;82.86
40794;BME280;26502;51.886;15.604;2022-12-07T14:31:51;99997.96;;;1.56;83.09
40794;BME280;26502;51.886;15.604;2022-12-07T14:36:58;100000.39;;;1.60;83.14
40794;BME280;26502;51.886;15.604;2022-12-07T14:42:07;99995.27;;;1.66;82.98
40794;BME280;26502;51.886;15.604;2022-12-07T14:47:14;99998.81;;;1.62;82.64
40794;BME280;26502;51.886;15.604;2022-12-07T14:52:24;99994.95;;;1.63;83.03
40794;BME280;26502;51.886;15.604;2022-12-07T14:57:33;99996.36;;;1.61;82.96
40794;BME280;26502;51.886;15.604;2022-12-07T15:02:41;99998.66;;;1.56;83.05
40794;BME280;26502;51.886;15.604;2022-12-07T15:07:49;100002.08;;;1.44;82.81
40794;BME280;26502;51.886;15.604;2022-12-07T15:12:57;99998.05;;;1.44;83.06
40794;BME280;26502;51.886;15.604;2022-12-07T15:18:27;100004.35;;;1.41;83.05
40794;BME280;26502;51.886;15.604;2022-12-07T15:23:34;100006.45;;;1.43;83.19
40794;BME280;26502;51.886;15.604;2022-12-07T15:28:43;100003.27;;;1.48;82.89
40794;BME280;26502;51.886;15.604;2022-12-07T15:33:50;100007.80;;;1.49;83.26
40794;BME280;26502;51.886;15.604;2022-12-07T15:38:58;100000.74;;;1.60;83.05
40794;BME280;26502;51.886;15.604;2022-12-07T15:44:05;99999.43;;;1.71;83.36
40794;BME280;26502;51.886;15.604;2022-12-07T15:49:30;99997.30;;;1.76;83.27
40794;BME280;26502;51.886;15.604;2022-12-07T15:54:37;100000.40;;;1.59;83.04
40794;BME280;26502;51.886;15.604;2022-12-07T15:59:45;100001.27;;;1.60;83.42
40794;BME280;26502;51.886;15.604;2022-12-07T16:04:52;99995.95;;;1.71;83.36
40794;BME280;26502;51.886;15.604;2022-12-07T16:09:59;99993.27;;;1.78;83.05
40794;BME280;26502;51.886;15.604;2022-12-07T16:15:10;99991.42;;;1.66;82.81
40794;BME280;26502;51.886;15.604;2022-12-07T16:20:17;99986.95;;;1.54;82.90
40794;BME280;26502;51.886;15.604;2022-12-07T16:25:25;99978.07;;;1.47;82.71
40794;BME280;26502;51.886;15.604;2022-12-07T16:30:32;99977.80;;;1.37;82.74
40794;BME280;26502;51.886;15.604;2022-12-07T16:35:41;99983.61;;;1.28;82.89
40794;BME280;26502;51.886;15.604;2022-12-07T16:40:50;99980.81;;;1.30;83.17
40794;BME280;26502;51.886;15.604;2022-12-07T16:45:58;99976.95;;;1.32;82.88
40794;BME280;26502;51.886;15.604;2022-12-07T16:51:07;99971.38;;;1.27;83.11
40794;BME280;26502;51.886;15.604;2022-12-07T16:56:17;99974.92;;;1.17;83.09
40794;BME280;26502;51.886;15.604;2022-12-07T17:01:24;99968.98;;;1.16;83.35
40794;BME280;26502;51.886;15.604;2022-12-07T17:06:34;99973.54;;;1.16;83.48
40794;BME280;26502;51.886;15.604;2022-12-07T17:11:46;99972.31;;;1.17;83.71
40794;BME280;26502;51.886;15.604;2022-12-07T17:16:53;99971.96;;;1.16;83.72
40794;BME280;26502;51.886;15.604;2022-12-07T17:22:03;99973.02;;;1.14;83.56
40794;BME280;26502;51.886;15.604;2022-12-07T17:27:10;99973.56;;;1.12;83.54
40794;BME280;26502;51.886;15.604;2022-12-07T17:32:18;99970.79;;;1.08;83.59
40794;BME280;26502;51.886;15.604;2022-12-07T17:37:31;99967.50;;;1.01;83.70
40794;BME280;26502;51.886;15.604;2022-12-07T17:42:42;99969.63;;;0.95;83.46
40794;BME280;26502;51.886;15.604;2022-12-07T17:47:53;99972.98;;;0.90;83.88
40794;BME280;26502;51.886;15.604;2022-12-07T17:53:00;99970.69;;;0.90;83.73
40794;BME280;26502;51.886;15.604;2022-12-07T17:58:19;99977.34;;;0.92;83.88
40794;BME280;26502;51.886;15.604;2022-12-07T18:03:28;99979.05;;;0.97;84.19
40794;BME280;26502;51.886;15.604;2022-12-07T18:08:38;99981.11;;;1.05;84.17
40794;BME280;26502;51.886;15.604;2022-12-07T18:13:47;99989.30;;;1.12;84.20
40794;BME280;26502;51.886;15.604;2022-12-07T18:18:57;99988.22;;;1.18;84.36
40794;BME280;26502;51.886;15.604;2022-12-07T18:24:08;99986.77;;;1.25;84.56
40794;BME280;26502;51.886;15.604;2022-12-07T18:29:17;99980.45;;;1.30;84.48
40794;BME280;26502;51.886;15.604;2022-12-07T18:34:26;99984.80;;;1.34;84.52
40794;BME280;26502;51.886;15.604;2022-12-07T18:39:35;99986.52;;;1.40;84.63
40794;BME280;26502;51.886;15.604;2022-12-07T18:44:43;99993.86;;;1.41;84.69
40794;BME280;26502;51.886;15.604;2022-12-07T18:49:56;99995.27;;;1.43;84.94
40794;BME280;26502;51.886;15.604;2022-12-07T18:55:07;99992.46;;;1.41;84.85
40794;BME280;26502;51.886;15.604;2022-12-07T19:00:17;99990.73;;;1.38;84.81
40794;BME280;26502;51.886;15.604;2022-12-07T19:05:29;99991.28;;;1.33;84.54
40794;BME280;26502;51.886;15.604;2022-12-07T19:10:42;100001.11;;;1.28;85.03
40794;BME280;26502;51.886;15.604;2022-12-07T19:15:52;100002.16;;;1.27;84.85
40794;BME280;26502;51.886;15.604;2022-12-07T19:21:04;100010.40;;;1.26;84.78
40794;BME280;26502;51.886;15.604;2022-12-07T19:26:22;100007.75;;;1.29;85.19
40794;BME280;26502;51.886;15.604;2022-12-07T19:31:32;100003.71;;;1.32;84.91
40794;BME280;26502;51.886;15.604;2022-12-07T19:36:47;100002.13;;;1.35;84.78
40794;BME280;26502;51.886;15.604;2022-12-07T19:42:03;100003.20;;;1.30;84.78
40794;BME280;26502;51.886;15.604;2022-12-07T19:47:15;100007.92;;;1.29;84.69
40794;BME280;26502;51.886;15.604;2022-12-07T19:52:27;100011.44;;;1.29;84.96
40794;BME280;26502;51.886;15.604;2022-12-07T19:57:36;100010.19;;;1.32;84.85
40794;BME280;26502;51.886;15.604;2022-12-07T20:02:52;100012.79;;;1.34;84.90
40794;BME280;26502;51.886;15.604;2022-12-07T20:08:02;100011.02;;;1.37;84.86
40794;BME280;26502;51.886;15.604;2022-12-07T20:13:12;100014.19;;;1.35;84.57
40794;BME280;26502;51.886;15.604;2022-12-07T20:18:39;100017.70;;;1.32;84.44
40794;BME280;26502;51.886;15.604;2022-12-07T20:23:50;100018.77;;;1.29;84.19
40794;BME280;26502;51.886;15.604;2022-12-07T20:28:59;100015.81;;;1.26;84.48
40794;BME280;26502;51.886;15.604;2022-12-07T20:34:11;100018.64;;;1.22;84.48
40794;BME280;26502;51.886;15.604;2022-12-07T20:39:23;100019.73;;;1.12;84.11
40794;BME280;26502;51.886;15.604;2022-12-07T20:44:36;100027.63;;;1.04;83.96
40794;BME280;26502;51.886;15.604;2022-12-07T20:49:46;100031.48;;;1.01;84.07
40794;BME280;26502;51.886;15.604;2022-12-07T20:54:55;100038.16;;;0.93;84.05
40794;BME280;26502;51.886;15.604;2022-12-07T21:00:05;100041.84;;;0.89;84.18
40794;BME280;26502;51.886;15.604;2022-12-07T21:05:16;100044.48;;;0.86;83.94
40794;BME280;26502;51.886;15.604;2022-12-07T21:10:25;100043.96;;;0.85;84.04
40794;BME280;26502;51.886;15.604;2022-12-07T21:15:32;100040.12;;;0.84;84.40
40794;BME280;26502;51.886;15.604;2022-12-07T21:20:40;100049.02;;;0.86;84.40
40794;BME280;26502;51.886;15.604;2022-12-07T21:25:48;100054.09;;;0.89;84.38
40794;BME280;26502;51.886;15.604;2022-12-07T21:30:58;100056.73;;;0.83;84.18
40794;BME280;26502;51.886;15.604;2022-12-07T21:36:09;100061.13;;;0.76;83.97
40794;BME280;26502;51.886;15.604;2022-12-07T21:41:19;100065.83;;;0.76;83.92
40794;BME280;26502;51.886;15.604;2022-12-07T21:46:28;100069.16;;;0.77;84.00
40794;BME280;26502;51.886;15.604;2022-12-07T21:51:36;100078.27;;;0.61;83.71
40794;BME280;26502;51.886;15.604;2022-12-07T21:56:44;100078.98;;;0.43;83.74
40794;BME280;26502;51.886;15.604;2022-12-07T22:01:53;100077.77;;;0.34;83.67
40794;BME280;26502;51.886;15.604;2022-12-07T22:07:01;100075.15;;;0.33;84.17
40794;BME280;26502;51.886;15.604;2022-12-07T22:12:09;100079.34;;;0.34;83.91
40794;BME280;26502;51.886;15.604;2022-12-07T22:17:17;100079.69;;;0.34;83.93
40794;BME280;26502;51.886;15.604;2022-12-07T22:22:24;100079.52;;;0.34;83.93
40794;BME280;26502;51.886;15.604;2022-12-07T22:27:32;100077.77;;;0.32;83.91
40794;BME280;26502;51.886;15.604;2022-12-07T22:32:40;100079.52;;;0.23;83.84
40794;BME280;26502;51.886;15.604;2022-12-07T22:37:51;100083.71;;;0.17;83.94
40794;BME280;26502;51.886;15.604;2022-12-07T22:42:58;100076.02;;;0.13;83.92
40794;BME280;26502;51.886;15.604;2022-12-07T22:48:07;100080.73;;;0.14;84.40
40794;BME280;26502;51.886;15.604;2022-12-07T22:53:14;100083.70;;;0.16;84.32
40794;BME280;26502;51.886;15.604;2022-12-07T22:58:22;100086.85;;;0.21;84.45
40794;BME280;26502;51.886;15.604;2022-12-07T23:03:32;100085.64;;;0.21;84.33
40794;BME280;26502;51.886;15.604;2022-12-07T23:08:40;100086.16;;;0.23;84.28
40794;BME280;26502;51.886;15.604;2022-12-07T23:13:47;100080.91;;;0.24;84.42
40794;BME280;26502;51.886;15.604;2022-12-07T23:18:55;100081.96;;;0.29;84.50
40794;BME280;26502;51.886;15.604;2022-12-07T23:24:04;100080.04;;;0.32;84.35
40794;BME280;26502;51.886;15.604;2022-12-07T23:29:13;100080.04;;;0.33;84.33
40794;BME280;26502;51.886;15.604;2022-12-07T23:34:20;100075.33;;;0.33;84.35
40794;BME280;26502;51.886;15.604;2022-12-07T23:39:28;100078.82;;;0.34;84.45
40794;BME280;26502;51.886;15.604;2022-12-07T23:44:36;100080.23;;;0.31;84.36
40794;BME280;26502;51.886;15.604;2022-12-07T23:49:43;100081.79;;;0.23;84.27
40794;BME280;26502;51.886;15.604;2022-12-07T23:54:51;100076.73;;;0.16;84.09
40794;BME280;26502;51.886;15.604;2022-12-07T23:59:58;100076.73;;;0.13;84.12
